KMFI

Details ICAO KMFI (MFI)
Name Marshfield Muni
Region United States
Timezone America/Chicago (UTC-6.0)
Plans Departing 0
Arriving 5
Stats Elevation 1,277 ft / 389 m (AMSL)
Location 44.636671° -90.189052°
Runways 2
Magnetic Variation 2.291° W
Sunrise 2017-12-13 13:30:55 UTC / 2017-12-13 07:30:55 Local
Sunset 2017-12-13 22:22:04 UTC / 2017-12-13 16:22:04 Local
Advertisement - Login to hide

Runways

ID Width Length Bearing (true) Bearing (mag) Surface Threshold Offset Overrun Length
04 100 ft / 30 m 3,597 ft / 1,096 m 46.91° 49.20° Asphalt 0 ft / 0 m 0 ft / 0 m
16 100 ft / 30 m 5,003 ft / 1,525 m 158.64° 160.93° Asphalt 0 ft / 0 m 0 ft / 0 m
22 100 ft / 30 m 3,597 ft / 1,096 m 226.92° 229.21° Asphalt 0 ft / 0 m 0 ft / 0 m
34 100 ft / 30 m 5,003 ft / 1,525 m 338.64° 340.93° Asphalt 0 ft / 0 m 0 ft / 0 m

Map

Weather


0- 5 10 15 20 25 30 35+ Temperature / ° C

Clouds and Precipitation
Forecast for 2017-12-13 18:00 UTC. Updated 2 hours ago

Ground ~20,000 ft ~40,000 ft Winds

METAR

KMFI 131554Z AUTO 07009KT 10SM FEW010 OVC022 M08/M10 A2938 RMK AO2 SLP971 T10781100 TSNO

TAF

Not found

Frequencies

Recorded 121.57 MHz ASOS
Unicom 123.00 MHz CTAF/UNICOM
Warning: Do not use this data for real-world aviation or navigation. No guarantee of current accuracy is given.